Time;durP1;ratioP1;P1;durP2;ratioP2;P2;SDS_P1;SDS_P2;PMS_P1;PMS_P2;Temp;Humidity;BMP_temperature;BMP_pressure;BME280_temperature;BME280_humidity;BME280_pressure;Samples;Min_cycle;Max_cycle;Signal;HPM_P1;HPM_P2
2022/06/29 00:00:58;;;;;;;;;;;;;;;21.62;100.00;100427.50;3056924;19;961;-48
2022/06/29 00:02:00;;;;;;;;;;;;;;;21.62;100.00;100426.66;3056883;19;885;-48
2022/06/29 00:03:05;;;;;;;;;;;;;;;21.62;100.00;100432.09;3057191;19;1149;-48
2022/06/29 00:04:07;;;;;;;;;;;;;;;21.61;100.00;100425.84;3057393;19;903;-49
2022/06/29 00:05:12;;;;;;;;;;;;;;;21.61;100.00;100431.28;3056941;19;917;-48
2022/06/29 00:06:14;;;;;;;;;;;;;;;21.60;100.00;100434.16;3057155;19;940;-48
2022/06/29 00:07:19;;;;;;;;;;;;;;;21.59;100.00;100427.88;3057270;19;1665;-49
2022/06/29 00:08:23;;;;;;;;;;;;;;;21.59;100.00;100432.44;3057222;19;1040;-48
2022/06/29 00:09:25;;;;;;;;;;;;;;;21.59;100.00;100421.59;3056895;19;1828;-48
2022/06/29 00:10:30;;;;;;;;;;;;;;;21.60;100.00;100429.56;3057219;19;1058;-49
2022/06/29 00:11:32;;;;;;;;;;;;;;;21.61;100.00;100431.28;3056826;19;989;-48
2022/06/29 00:12:36;;;;;;;;;;;;;;;21.63;100.00;100423.78;3057446;19;901;-48
2022/06/29 00:13:38;;;;;;;;;;;;;;;21.66;100.00;100426.16;3057099;19;901;-48
2022/06/29 00:14:44;;;;;;;;;;;;;;;21.68;100.00;100432.28;3057232;19;1668;-49
2022/06/29 00:15:54;;;;;;;;;;;;;;;21.71;100.00;100421.09;3055759;19;1378;-48
2022/06/29 00:16:56;;;;;;;;;;;;;;;21.72;100.00;100422.81;3057012;19;980;-48
2022/06/29 00:18:01;;;;;;;;;;;;;;;21.75;100.00;100422.44;3056843;19;1860;-49
2022/06/29 00:19:02;;;;;;;;;;;;;;;21.76;100.00;100413.28;3057061;19;1126;-48
2022/06/29 00:20:10;;;;;;;;;;;;;;;21.78;100.00;100432.13;3057041;19;882;-48
2022/06/29 00:21:14;;;;;;;;;;;;;;;21.79;100.00;100418.38;3057051;19;1017;-48
2022/06/29 00:22:16;;;;;;;;;;;;;;;21.79;100.00;100431.13;3056942;19;1321;-48
2022/06/29 00:23:21;;;;;;;;;;;;;;;21.81;100.00;100424.50;3057203;19;1182;-48
2022/06/29 00:24:23;;;;;;;;;;;;;;;21.80;100.00;100424.66;3056724;19;953;-48
2022/06/29 00:25:27;;;;;;;;;;;;;;;21.80;100.00;100430.94;3057216;19;1045;-48
2022/06/29 00:26:29;;;;;;;;;;;;;;;21.81;100.00;100416.34;3056622;19;985;-49
2022/06/29 00:27:33;;;;;;;;;;;;;;;21.82;100.00;100422.63;3057163;19;889;-49
2022/06/29 00:28:38;;;;;;;;;;;;;;;21.82;100.00;100417.19;3056670;19;1089;-48
2022/06/29 00:29:40;;;;;;;;;;;;;;;21.83;100.00;100419.75;3056556;19;1040;-47
2022/06/29 00:30:44;;;;;;;;;;;;;;;21.81;100.00;100424.50;3056266;19;1060;-48
2022/06/29 00:31:46;;;;;;;;;;;;;;;21.81;100.00;100421.78;3056278;19;1019;-48
2022/06/29 00:32:51;;;;;;;;;;;;;;;21.81;100.00;100426.38;3056743;19;1184;-48
2022/06/29 00:33:53;;;;;;;;;;;;;;;21.78;100.00;100432.97;3056968;19;898;-48
2022/06/29 00:34:57;;;;;;;;;;;;;;;21.77;100.00;100430.44;3056877;19;972;-49
2022/06/29 00:35:59;;;;;;;;;;;;;;;21.74;100.00;100431.59;3056907;19;936;-48
2022/06/29 00:37:04;;;;;;;;;;;;;;;21.74;100.00;100441.63;3056559;19;897;-48
2022/06/29 00:38:06;;;;;;;;;;;;;;;21.72;100.00;100441.81;3056959;19;932;-48
2022/06/29 00:39:11;;;;;;;;;;;;;;;21.70;100.00;100443.00;3055841;19;1898;-49
2022/06/29 00:40:16;;;;;;;;;;;;;;;21.68;100.00;100440.44;3057024;19;968;-49
2022/06/29 00:41:18;;;;;;;;;;;;;;;21.69;100.00;100444.84;3056541;19;1118;-49
2022/06/29 00:42:23;;;;;;;;;;;;;;;21.69;100.00;100439.44;3055978;19;1831;-48
2022/06/29 00:43:25;;;;;;;;;;;;;;;21.73;100.00;100457.09;3056603;19;1003;-49
2022/06/29 00:44:29;;;;;;;;;;;;;;;21.73;100.00;100439.94;3056896;19;1590;-49
2022/06/29 00:45:34;;;;;;;;;;;;;;;21.72;100.00;100444.53;3056271;19;957;-49
2022/06/29 00:46:39;;;;;;;;;;;;;;;21.73;100.00;100435.38;3056800;19;854;-48
2022/06/29 00:47:43;;;;;;;;;;;;;;;21.69;100.00;100442.13;3055831;19;929;-49
2022/06/29 00:48:45;;;;;;;;;;;;;;;21.68;100.00;100445.03;3055700;19;1024;-48
2022/06/29 00:49:50;;;;;;;;;;;;;;;21.68;100.00;100432.28;3056673;19;1012;-48
2022/06/29 00:50:52;;;;;;;;;;;;;;;21.68;100.00;100437.72;3055792;19;940;-49
2022/06/29 00:52:03;;;;;;;;;;;;;;;21.68;100.00;100435.00;3055643;19;990;-48
2022/06/29 00:53:08;;;;;;;;;;;;;;;21.62;100.00;100432.94;3055666;19;910;-49
2022/06/29 00:54:10;;;;;;;;;;;;;;;21.64;100.00;100430.91;3056018;19;921;-49
2022/06/29 00:55:15;;;;;;;;;;;;;;;21.62;100.00;100421.22;3055385;19;941;-49
2022/06/29 00:56:16;;;;;;;;;;;;;;;21.62;100.00;100422.09;3055898;19;957;-48
2022/06/29 00:57:25;;;;;;;;;;;;;;;21.62;100.00;100427.50;3056185;19;980;-48
2022/06/29 00:58:27;;;;;;;;;;;;;;;21.60;100.00;100416.00;3056592;19;972;-48
2022/06/29 00:59:32;;;;;;;;;;;;;;;21.57;100.00;100413.59;3055146;19;1918;-48
2022/06/29 01:00:36;;;;;;;;;;;;;;;21.54;100.00;100408.50;3056332;19;881;-48
2022/06/29 01:01:38;;;;;;;;;;;;;;;21.51;100.00;100408.81;3056398;19;1705;-49
2022/06/29 01:02:43;;;;;;;;;;;;;;;21.45;100.00;100407.63;3056602;19;858;-48
2022/06/29 01:03:45;;;;;;;;;;;;;;;21.43;100.00;100406.94;3056164;19;969;-47
2022/06/29 01:04:50;;;;;;;;;;;;;;;21.42;100.00;100398.97;3056536;19;920;-48
2022/06/29 01:05:52;;;;;;;;;;;;;;;21.43;100.00;100400.66;3055837;19;850;-48
2022/06/29 01:06:56;;;;;;;;;;;;;;;21.38;100.00;100394.88;3056317;19;973;-49
2022/06/29 01:08:01;;;;;;;;;;;;;;;21.35;100.00;100395.22;3056329;19;965;-48
2022/06/29 01:09:03;;;;;;;;;;;;;;;21.30;100.00;100384.00;3056517;19;870;-49
2022/06/29 01:10:08;;;;;;;;;;;;;;;21.28;100.00;100380.59;3056072;19;1056;-48
2022/06/29 01:11:10;;;;;;;;;;;;;;;21.19;100.00;100377.03;3056268;19;1040;-48
2022/06/29 01:12:15;;;;;;;;;;;;;;;21.15;100.00;100368.31;3056098;19;1334;-48
2022/06/29 01:13:17;;;;;;;;;;;;;;;21.06;100.00;100372.03;3056509;19;865;-47
2022/06/29 01:14:22;;;;;;;;;;;;;;;21.04;100.00;100368.63;3054879;19;1811;-48
2022/06/29 01:15:23;;;;;;;;;;;;;;;20.98;100.00;100363.03;3055357;19;1059;-48
2022/06/29 01:16:28;;;;;;;;;;;;;;;20.98;100.00;100369.31;3056065;19;920;-48
2022/06/29 01:17:30;;;;;;;;;;;;;;;20.98;100.00;100369.31;3055969;19;1218;-48
2022/06/29 01:18:35;;;;;;;;;;;;;;;20.85;100.00;100368.91;3056083;19;940;-48
2022/06/29 01:19:37;;;;;;;;;;;;;;;20.83;100.00;100357.38;3056105;19;1854;-48
2022/06/29 01:20:42;;;;;;;;;;;;;;;20.84;100.00;100351.78;3056275;19;829;-49
2022/06/29 01:21:45;;;;;;;;;;;;;;;20.81;100.00;100346.69;3056558;19;837;-48
2022/06/29 01:22:52;;;;;;;;;;;;;;;20.75;100.00;100347.34;3056355;19;881;-48
2022/06/29 01:23:54;;;;;;;;;;;;;;;20.76;100.00;100342.78;3056479;19;877;-49
2022/06/29 01:24:58;;;;;;;;;;;;;;;20.72;100.00;100335.97;3055973;19;973;-48
2022/06/29 01:26:04;;;;;;;;;;;;;;;20.75;100.00;100324.81;3056221;19;977;-48
2022/06/29 01:27:08;;;;;;;;;;;;;;;20.76;100.00;100321.09;3056177;19;1328;-49
2022/06/29 01:28:13;;;;;;;;;;;;;;;20.65;100.00;100329.50;3059291;19;1239;-49
2022/06/29 01:29:18;;;;;;;;;;;;;;;20.62;100.00;100324.41;3058531;19;952;-48
2022/06/29 01:30:20;;;;;;;;;;;;;;;20.62;100.00;100319.00;3058925;19;873;-47
2022/06/29 01:31:24;;;;;;;;;;;;;;;20.58;100.00;100314.91;3059403;19;1027;-48
2022/06/29 01:32:26;;;;;;;;;;;;;;;20.57;100.00;100307.78;3059331;19;1039;-48
2022/06/29 01:33:31;;;;;;;;;;;;;;;20.59;100.00;100309.31;3059076;19;1397;-48
2022/06/29 01:34:33;;;;;;;;;;;;;;;20.59;100.00;100308.47;3059645;19;897;-48
2022/06/29 01:35:37;;;;;;;;;;;;;;;20.54;100.00;100299.94;3059394;19;885;-49
2022/06/29 01:36:39;;;;;;;;;;;;;;;20.53;100.00;100303.72;3059117;19;984;-48
2022/06/29 01:37:45;;;;;;;;;;;;;;;20.53;100.00;100299.09;3059282;19;917;-48
2022/06/29 01:38:47;;;;;;;;;;;;;;;20.55;100.00;100301.66;3059187;19;976;-48
2022/06/29 01:39:52;;;;;;;;;;;;;;;20.58;100.00;100295.91;3058010;19;1869;-48
2022/06/29 01:40:54;;;;;;;;;;;;;;;20.51;100.00;100286.75;3058960;19;925;-48
2022/06/29 01:41:58;;;;;;;;;;;;;;;20.47;100.00;100286.22;3058238;19;1732;-48
2022/06/29 01:43:00;;;;;;;;;;;;;;;20.46;100.00;100282.66;3058846;19;1205;-48
2022/06/29 01:44:05;;;;;;;;;;;;;;;20.40;100.00;100294.16;3059404;19;987;-48
2022/06/29 01:45:07;;;;;;;;;;;;;;;20.34;100.00;100278.50;3059028;19;933;-49
2022/06/29 01:46:11;;;;;;;;;;;;;;;20.27;100.00;100288.31;3059440;19;901;-48
2022/06/29 01:47:13;;;;;;;;;;;;;;;20.27;100.00;100277.47;3059414;19;1072;-49
2022/06/29 01:48:18;;;;;;;;;;;;;;;20.32;100.00;100277.81;3059363;19;890;-48
2022/06/29 01:49:23;;;;;;;;;;;;;;;20.36;100.00;100281.09;3058832;19;979;-48
2022/06/29 01:50:25;;;;;;;;;;;;;;;20.29;100.00;100266.44;3058476;19;1008;-48
2022/06/29 01:51:29;;;;;;;;;;;;;;;20.24;100.00;100283.19;3058079;19;889;-49
2022/06/29 01:52:31;;;;;;;;;;;;;;;20.25;100.00;100271.34;3058871;19;886;-48
2022/06/29 01:53:36;;;;;;;;;;;;;;;20.28;100.00;100270.19;3059138;19;893;-48
2022/06/29 01:54:38;;;;;;;;;;;;;;;20.32;100.00;100280.53;3059334;19;968;-50
2022/06/29 01:55:42;;;;;;;;;;;;;;;20.27;100.00;100282.88;3058072;19;925;-48
2022/06/29 01:56:44;;;;;;;;;;;;;;;20.31;100.00;100273.41;3058233;19;977;-48
2022/06/29 01:57:49;;;;;;;;;;;;;;;20.29;100.00;100270.00;3058795;19;996;-48
2022/06/29 01:58:51;;;;;;;;;;;;;;;20.29;100.00;100269.13;3059304;19;905;-48
2022/06/29 01:59:55;;;;;;;;;;;;;;;20.32;100.00;100275.09;3058329;19;1850;-48
2022/06/29 02:00:57;;;;;;;;;;;;;;;20.34;100.00;100277.66;3058965;19;945;-48
2022/06/29 02:02:01;;;;;;;;;;;;;;;20.31;100.00;100272.53;3058629;19;962;-48
2022/06/29 02:03:03;;;;;;;;;;;;;;;20.31;100.00;100273.41;3059089;19;835;-49
2022/06/29 02:04:08;;;;;;;;;;;;;;;20.31;100.00;100276.09;3058902;19;922;-48
2022/06/29 02:05:12;;;;;;;;;;;;;;;20.32;100.00;100279.66;3058822;19;829;-48
2022/06/29 02:06:16;;;;;;;;;;;;;;;20.35;100.00;100280.22;3058734;19;1016;-49
2022/06/29 02:07:18;;;;;;;;;;;;;;;20.40;100.00;100267.06;3058992;19;1019;-48
2022/06/29 02:08:23;;;;;;;;;;;;;;;20.41;100.00;100270.59;3058693;19;878;-48
2022/06/29 02:09:27;;;;;;;;;;;;;;;20.40;100.00;100272.47;3058978;19;853;-50
2022/06/29 02:10:29;;;;;;;;;;;;;;;20.41;100.00;100267.88;3058646;19;930;-48
2022/06/29 02:11:34;;;;;;;;;;;;;;;20.40;100.00;100283.31;3059127;19;936;-48
2022/06/29 02:12:36;;;;;;;;;;;;;;;20.37;100.00;100272.78;3058452;19;1285;-49
2022/06/29 02:13:40;;;;;;;;;;;;;;;20.44;100.00;100283.81;3058857;19;964;-48
2022/06/29 02:14:43;;;;;;;;;;;;;;;20.43;100.00;100280.25;3058750;19;850;-48
2022/06/29 02:15:47;;;;;;;;;;;;;;;20.43;100.00;100280.25;3058462;19;965;-48
2022/06/29 02:16:49;;;;;;;;;;;;;;;20.47;100.00;100278.94;3058549;19;898;-48
2022/06/29 02:17:54;;;;;;;;;;;;;;;20.51;100.00;100289.47;3058862;19;984;-48
2022/06/29 02:18:56;;;;;;;;;;;;;;;20.53;100.00;100282.00;3058576;19;1056;-48
2022/06/29 02:20:01;;;;;;;;;;;;;;;20.54;100.00;100284.53;3058299;19;1973;-48
2022/06/29 02:21:02;;;;;;;;;;;;;;;20.57;100.00;100283.38;3057797;19;1016;-49
2022/06/29 02:22:07;;;;;;;;;;;;;;;20.56;100.00;100282.50;3058182;19;988;-48
2022/06/29 02:23:09;;;;;;;;;;;;;;;20.59;100.00;100301.19;3058248;19;925;-48
2022/06/29 02:24:13;;;;;;;;;;;;;;;20.61;100.00;100298.31;3058485;19;1067;-49
2022/06/29 02:25:15;;;;;;;;;;;;;;;20.62;100.00;100302.72;3058486;19;897;-48
2022/06/29 02:26:20;;;;;;;;;;;;;;;20.66;100.00;100307.63;3058417;19;1162;-49
2022/06/29 02:27:21;;;;;;;;;;;;;;;20.70;100.00;100305.44;3058282;19;881;-48
2022/06/29 02:28:26;;;;;;;;;;;;;;;20.75;100.00;100303.09;3058384;19;1028;-49
2022/06/29 02:29:28;;;;;;;;;;;;;;;20.75;100.00;100301.25;3058365;19;1396;-48
2022/06/29 02:35:40;;;;;;;;;;;;;;;20.93;100.00;100311.13;3056423;19;961;-48
2022/06/29 02:36:42;;;;;;;;;;;;;;;20.92;100.00;100315.69;3058483;19;830;-49
2022/06/29 02:37:46;;;;;;;;;;;;;;;20.92;100.00;100312.13;3058327;19;908;-48
2022/06/29 02:38:48;;;;;;;;;;;;;;;20.88;100.00;100317.06;3058697;19;885;-49
2022/06/29 02:39:52;;;;;;;;;;;;;;;20.89;100.00;100321.44;3057675;19;1060;-48
2022/06/29 02:40:54;;;;;;;;;;;;;;;20.86;100.00;100332.66;3056786;19;1839;-48
2022/06/29 02:41:59;;;;;;;;;;;;;;;20.78;100.00;100329.88;3057381;19;1121;-49
2022/06/29 02:43:04;;;;;;;;;;;;;;;20.79;100.00;100342.44;3058128;19;996;-48
2022/06/29 02:44:05;;;;;;;;;;;;;;;20.82;100.00;100347.53;3057961;19;1020;-48
2022/06/29 02:45:10;;;;;;;;;;;;;;;20.71;100.00;100361.41;3058582;19;882;-48
2022/06/29 02:46:12;;;;;;;;;;;;;;;20.70;100.00;100355.13;3058460;19;992;-48
2022/06/29 02:47:18;;;;;;;;;;;;;;;20.67;100.00;100357.28;3058144;19;992;-48
2022/06/29 02:48:19;;;;;;;;;;;;;;;20.72;100.00;100363.09;3058155;19;1013;-48
2022/06/29 02:49:24;;;;;;;;;;;;;;;20.76;100.00;100364.47;3058463;19;1694;-48
2022/06/29 02:50:26;;;;;;;;;;;;;;;20.78;100.00;100367.84;3056911;19;978;-48
2022/06/29 02:51:30;;;;;;;;;;;;;;;20.68;100.00;100367.13;3057700;19;1797;-48
2022/06/29 02:52:32;;;;;;;;;;;;;;;20.76;100.00;100376.19;3058216;19;964;-48
2022/06/29 02:53:37;;;;;;;;;;;;;;;20.86;100.00;100362.47;3058214;19;845;-48
2022/06/29 02:54:38;;;;;;;;;;;;;;;20.88;100.00;100373.16;3057912;19;1047;-48
2022/06/29 02:55:43;;;;;;;;;;;;;;;20.81;100.00;100372.97;3057811;19;965;-48
2022/06/29 02:56:45;;;;;;;;;;;;;;;20.85;100.00;100385.19;3057970;19;973;-48
2022/06/29 02:57:49;;;;;;;;;;;;;;;20.84;100.00;100389.75;3058022;19;1711;-48
2022/06/29 02:58:51;;;;;;;;;;;;;;;20.84;100.00;100388.91;3057652;19;997;-48
2022/06/29 02:59:56;;;;;;;;;;;;;;;20.87;100.00;100388.59;3058284;19;997;-48
2022/06/29 03:00:57;;;;;;;;;;;;;;;20.91;100.00;100389.09;3056837;19;1860;-48
2022/06/29 03:02:02;;;;;;;;;;;;;;;20.92;100.00;100391.66;3058208;19;1087;-48
2022/06/29 03:03:04;;;;;;;;;;;;;;;20.96;100.00;100393.03;3058015;19;906;-48
2022/06/29 03:04:08;;;;;;;;;;;;;;;20.95;100.00;100383.19;3058259;19;985;-49
2022/06/29 03:05:11;;;;;;;;;;;;;;;20.95;100.00;100395.91;3057886;19;1115;-48
2022/06/29 03:06:15;;;;;;;;;;;;;;;20.99;100.00;100391.88;3058086;19;934;-48
2022/06/29 03:07:17;;;;;;;;;;;;;;;21.01;100.00;100396.09;3057953;19;957;-48
2022/06/29 03:08:22;;;;;;;;;;;;;;;20.97;100.00;100394.75;3057196;19;1013;-49
2022/06/29 03:09:23;;;;;;;;;;;;;;;21.03;100.00;100399.50;3057304;19;949;-48
2022/06/29 03:10:28;;;;;;;;;;;;;;;21.04;100.00;100406.63;3057152;19;733;-48
2022/06/29 03:11:30;;;;;;;;;;;;;;;21.06;100.00;100399.19;3057006;19;964;-48
2022/06/29 03:12:34;;;;;;;;;;;;;;;21.07;100.00;100400.88;3056901;19;1028;-48
2022/06/29 03:13:37;;;;;;;;;;;;;;;21.04;100.00;100397.63;3058111;19;920;-48
2022/06/29 03:14:41;;;;;;;;;;;;;;;21.03;100.00;100402.22;3057806;19;1063;-48
2022/06/29 03:15:43;;;;;;;;;;;;;;;20.97;100.00;100400.16;3058038;19;1059;-48
2022/06/29 03:16:47;;;;;;;;;;;;;;;20.96;100.00;100401.19;3058059;19;984;-48
2022/06/29 03:17:49;;;;;;;;;;;;;;;20.96;100.00;100403.88;3058222;19;964;-48
2022/06/29 03:18:54;;;;;;;;;;;;;;;21.00;100.00;100407.13;3056968;19;910;-48
2022/06/29 03:19:56;;;;;;;;;;;;;;;21.00;100.00;100409.84;3057053;19;1221;-48
2022/06/29 03:21:00;;;;;;;;;;;;;;;20.99;100.00;100414.41;3057182;19;1865;-48
2022/06/29 03:22:03;;;;;;;;;;;;;;;20.97;100.00;100411.03;3057748;19;1108;-49
2022/06/29 03:23:07;;;;;;;;;;;;;;;20.89;100.00;100408.25;3057858;19;871;-48
2022/06/29 03:24:09;;;;;;;;;;;;;;;20.90;100.00;100403.69;3057695;19;1011;-48
2022/06/29 03:25:14;;;;;;;;;;;;;;;20.92;100.00;100407.06;3057224;19;901;-48
2022/06/29 03:26:17;;;;;;;;;;;;;;;20.92;100.00;100402.50;3057783;19;934;-47
2022/06/29 03:27:22;;;;;;;;;;;;;;;20.92;100.00;100397.06;3057628;19;1768;-48
2022/06/29 03:28:24;;;;;;;;;;;;;;;20.93;100.00;100409.63;3057890;19;962;-48
2022/06/29 03:29:28;;;;;;;;;;;;;;;20.98;100.00;100401.88;3057903;19;1003;-49
2022/06/29 03:30:30;;;;;;;;;;;;;;;20.98;100.00;100399.16;3057690;19;980;-48
2022/06/29 03:31:35;;;;;;;;;;;;;;;21.00;100.00;100407.13;3056724;19;925;-48
2022/06/29 03:32:37;;;;;;;;;;;;;;;20.92;100.00;100413.34;3056755;19;921;-48
2022/06/29 03:33:41;;;;;;;;;;;;;;;20.93;100.00;100404.22;3057631;19;1657;-49
2022/06/29 03:34:43;;;;;;;;;;;;;;;20.87;100.00;100415.72;3057695;19;930;-48
2022/06/29 03:35:47;;;;;;;;;;;;;;;20.89;100.00;100412.84;3057489;19;1692;-49
2022/06/29 03:36:52;;;;;;;;;;;;;;;20.74;100.00;100415.31;3057625;19;958;-48
2022/06/29 03:37:54;;;;;;;;;;;;;;;20.63;100.00;100418.31;3057600;19;858;-49
2022/06/29 03:38:58;;;;;;;;;;;;;;;20.67;100.00;100415.09;3057343;19;937;-48
2022/06/29 03:40:00;;;;;;;;;;;;;;;20.65;100.00;100413.59;3057322;19;912;-47
2022/06/29 03:41:05;;;;;;;;;;;;;;;20.62;100.00;100422.03;3058766;19;1887;-48
2022/06/29 03:42:07;;;;;;;;;;;;;;;20.62;100.00;100416.59;3056401;19;1044;-48
2022/06/29 03:43:11;;;;;;;;;;;;;;;20.63;100.00;100413.75;3057685;19;905;-48
2022/06/29 03:44:16;;;;;;;;;;;;;;;20.69;100.00;100413.06;3057276;19;968;-47
2022/06/29 03:45:19;;;;;;;;;;;;;;;20.76;100.00;100410.59;3057690;19;775;-47
2022/06/29 03:46:24;;;;;;;;;;;;;;;20.78;100.00;100414.81;3057625;19;881;-48
2022/06/29 03:47:25;;;;;;;;;;;;;;;20.82;100.00;100408.06;3057603;19;1048;-49
2022/06/29 03:48:30;;;;;;;;;;;;;;;20.84;100.00;100403.34;3056595;19;1020;-48
2022/06/29 03:49:32;;;;;;;;;;;;;;;20.87;100.00;100404.88;3056563;19;1036;-48
2022/06/29 03:50:36;;;;;;;;;;;;;;;20.89;100.00;100408.25;3055467;19;1775;-48
2022/06/29 03:51:41;;;;;;;;;;;;;;;20.90;100.00;100404.53;3058662;19;1631;-48
2022/06/29 03:52:42;;;;;;;;;;;;;;;20.90;100.00;100398.25;3057322;19;997;-48
2022/06/29 03:53:47;;;;;;;;;;;;;;;20.95;100.00;100401.34;3057325;19;893;-48
2022/06/29 03:54:49;;;;;;;;;;;;;;;21.01;100.00;100400.69;3057346;19;912;-48
2022/06/29 03:55:53;;;;;;;;;;;;;;;21.05;100.00;100404.75;3057389;19;1139;-48
2022/06/29 03:56:56;;;;;;;;;;;;;;;21.10;100.00;100395.13;3057083;19;961;-48
2022/06/29 03:58:00;;;;;;;;;;;;;;;21.15;100.00;100398.19;3057439;19;886;-48
2022/06/29 03:59:02;;;;;;;;;;;;;;;21.22;100.00;100392.13;3057182;19;877;-48
2022/06/29 04:00:07;;;;;;;;;;;;;;;21.24;100.00;100400.97;3057079;19;1261;-48
2022/06/29 04:01:17;;;;;;;;;;;;;;;21.29;100.00;100398.59;3056224;19;1834;-48
2022/06/29 04:02:19;;;;;;;;;;;;;;;21.34;100.00;100401.69;3057290;19;1982;-48
2022/06/29 04:03:24;;;;;;;;;;;;;;;21.38;100.00;100393.00;3056640;19;1015;-48
2022/06/29 04:04:25;;;;;;;;;;;;;;;21.40;100.00;100401.84;3057414;19;885;-48
2022/06/29 04:05:30;;;;;;;;;;;;;;;21.46;100.00;100397.63;3057058;19;858;-48
2022/06/29 04:06:33;;;;;;;;;;;;;;;21.39;100.00;100393.88;3057429;19;886;-48
2022/06/29 04:07:37;;;;;;;;;;;;;;;21.36;100.00;100396.94;3056781;19;1225;-48
2022/06/29 04:08:40;;;;;;;;;;;;;;;21.38;100.00;100397.59;3056292;19;1048;-48
2022/06/29 04:09:44;;;;;;;;;;;;;;;21.22;100.00;100397.56;3056118;19;991;-49
2022/06/29 04:10:48;;;;;;;;;;;;;;;21.20;100.00;100409.44;3057469;19;851;-48
2022/06/29 04:11:54;;;;;;;;;;;;;;;21.19;100.00;100405.03;3057163;19;913;-48
2022/06/29 04:12:58;;;;;;;;;;;;;;;21.07;100.00;100406.31;3057158;19;1606;-48
2022/06/29 04:14:00;;;;;;;;;;;;;;;20.98;100.00;100401.88;3057015;19;865;-48
2022/06/29 04:15:05;;;;;;;;;;;;;;;21.03;100.00;100404.06;3056641;19;1195;-48
2022/06/29 04:16:07;;;;;;;;;;;;;;;21.10;100.00;100394.28;3057799;19;1804;-49
2022/06/29 04:17:12;;;;;;;;;;;;;;;21.09;100.00;100401.56;3056349;19;1443;-48
2022/06/29 04:18:14;;;;;;;;;;;;;;;21.20;100.00;100414.88;3058405;19;944;-49
2022/06/29 04:19:18;;;;;;;;;;;;;;;21.22;100.00;100403.00;3057288;19;1601;-48
2022/06/29 04:21:40;;;;;;;;;;;;;;;21.28;100.00;100403.19;3056425;19;1842;-47
2022/06/29 04:22:45;;;;;;;;;;;;;;;21.41;100.00;100402.69;3056910;19;1166;-48
2022/06/29 04:23:47;;;;;;;;;;;;;;;21.49;100.00;100402.72;3056686;19;1040;-48
2022/06/29 04:24:52;;;;;;;;;;;;;;;21.53;100.00;100406.78;3057166;19;992;-49
2022/06/29 04:25:54;;;;;;;;;;;;;;;21.61;100.00;100420.41;3056733;19;1299;-48
2022/06/29 04:26:58;;;;;;;;;;;;;;;21.67;100.00;100416.16;3056816;19;1028;-49
2022/06/29 04:28:00;;;;;;;;;;;;;;;21.72;100.00;100408.38;3056450;19;958;-48
2022/06/29 04:29:05;;;;;;;;;;;;;;;21.78;100.00;100427.53;3057231;19;1621;-48
2022/06/29 04:30:07;;;;;;;;;;;;;;;21.86;100.00;100419.41;3056876;19;944;-49
2022/06/29 04:31:11;;;;;;;;;;;;;;;21.91;100.00;100432.47;3057138;19;1011;-48
2022/06/29 04:32:13;;;;;;;;;;;;;;;21.95;100.00;100438.44;3056588;19;983;-48
2022/06/29 04:33:18;;;;;;;;;;;;;;;21.96;100.00;100440.16;3056885;19;1189;-48
2022/06/29 04:34:20;;;;;;;;;;;;;;;21.90;100.00;100438.94;3056450;19;965;-48
2022/06/29 04:35:24;;;;;;;;;;;;;;;21.87;100.00;100441.97;3057121;19;1600;-48
2022/06/29 04:36:26;;;;;;;;;;;;;;;21.86;100.00;100432.97;3056527;19;866;-48
2022/06/29 04:37:30;;;;;;;;;;;;;;;21.88;100.00;100449.13;3056738;19;1710;-48
2022/06/29 04:38:32;;;;;;;;;;;;;;;21.88;100.00;100457.28;3056734;19;877;-48
2022/06/29 04:39:36;;;;;;;;;;;;;;;21.88;100.00;100449.97;3056623;19;1351;-48
2022/06/29 04:40:38;;;;;;;;;;;;;;;21.91;100.00;100441.47;3056580;19;984;-49
2022/06/29 04:41:43;;;;;;;;;;;;;;;21.84;100.00;100450.50;3056085;19;1147;-48
2022/06/29 04:42:44;;;;;;;;;;;;;;;21.84;100.00;100454.06;3055533;19;1858;-49
2022/06/29 04:43:49;;;;;;;;;;;;;;;21.87;100.00;100448.25;3056852;19;874;-48
2022/06/29 04:44:52;;;;;;;;;;;;;;;21.88;100.00;100454.56;3056701;19;963;-48
2022/06/29 04:47:14;;;;;;;;;;;;;;;21.85;100.00;100460.34;3056397;19;1261;-48
2022/06/29 04:48:16;;;;;;;;;;;;;;;21.78;100.00;100457.44;3057640;19;1837;-49
2022/06/29 04:49:20;;;;;;;;;;;;;;;21.79;100.00;100461.84;3056544;19;821;-48
2022/06/29 04:50:22;;;;;;;;;;;;;;;21.71;100.00;100452.84;3056624;19;1665;-48
2022/06/29 04:51:27;;;;;;;;;;;;;;;21.79;100.00;100461.84;3056895;19;1550;-48
2022/06/29 04:52:30;;;;;;;;;;;;;;;21.87;100.00;100472.72;3057501;19;1714;-48
2022/06/29 04:53:35;;;;;;;;;;;;;;;21.93;100.00;100468.50;3056457;19;1032;-48
2022/06/29 04:54:37;;;;;;;;;;;;;;;21.94;100.00;100467.47;3056355;19;1059;-49
2022/06/29 04:55:41;;;;;;;;;;;;;;;22.02;100.00;100469.38;3056406;19;936;-48
2022/06/29 04:56:46;;;;;;;;;;;;;;;22.10;100.00;100472.09;3056470;19;954;-48
2022/06/29 04:57:48;;;;;;;;;;;;;;;22.21;100.00;100469.91;3057280;19;1597;-48
2022/06/29 04:58:53;;;;;;;;;;;;;;;22.29;100.00;100474.50;3058085;19;1755;-49
2022/06/29 04:59:55;;;;;;;;;;;;;;;22.37;100.00;100471.75;3057744;19;1721;-48
2022/06/29 05:01:00;;;;;;;;;;;;;;;22.41;100.00;100478.56;3056711;19;1726;-48
2022/06/29 05:02:04;;;;;;;;;;;;;;;22.45;100.00;100485.38;3055976;19;1659;-48
2022/06/29 05:03:06;;;;;;;;;;;;;;;22.48;100.00;100479.56;3057192;19;1425;-48
2022/06/29 05:04:11;;;;;;;;;;;;;;;22.53;100.00;100501.69;3057743;19;1295;-48
2022/06/29 05:05:13;;;;;;;;;;;;;;;22.50;100.00;100499.28;3057489;19;1363;-49
2022/06/29 05:06:17;;;;;;;;;;;;;;;22.61;100.00;100504.38;3056220;19;1811;-48
2022/06/29 05:07:22;;;;;;;;;;;;;;;22.71;100.00;100506.91;3054802;19;1100;-48
2022/06/29 05:08:24;;;;;;;;;;;;;;;22.77;100.00;100508.13;3057712;19;1662;-48
2022/06/29 05:09:28;;;;;;;;;;;;;;;22.84;100.00;100515.41;3055728;19;1062;-49
2022/06/29 05:10:30;;;;;;;;;;;;;;;22.84;100.00;100522.72;3056343;19;1820;-48
2022/06/29 05:11:35;;;;;;;;;;;;;;;22.85;100.00;100527.16;3057363;19;1565;-48
2022/06/29 05:12:38;;;;;;;;;;;;;;;22.82;100.00;100541.94;3054118;19;959;-48
2022/06/29 05:13:44;;;;;;;;;;;;;;;22.76;100.00;100547.25;3055383;19;1027;-48
2022/06/29 05:14:46;;;;;;;;;;;;;;;22.72;100.00;100562.19;3056262;19;861;-48
2022/06/29 05:15:51;;;;;;;;;;;;;;;22.73;100.00;100555.72;3053957;19;1510;-48
2022/06/29 05:16:55;;;;;;;;;;;;;;;22.70;100.00;100556.94;3057553;19;1814;-48
2022/06/29 05:17:57;;;;;;;;;;;;;;;22.73;100.00;100550.28;3055697;19;1436;-48
2022/06/29 05:19:02;;;;;;;;;;;;;;;22.75;100.00;100553.69;3053660;19;1454;-48
2022/06/29 05:20:04;;;;;;;;;;;;;;;22.68;100.00;100548.09;3055987;19;1052;-48
2022/06/29 05:21:10;;;;;;;;;;;;;;;22.68;100.00;100544.50;3055556;19;878;-48
2022/06/29 05:22:12;;;;;;;;;;;;;;;22.75;100.00;100540.06;3054904;19;798;-48
2022/06/29 05:23:16;;;;;;;;;;;;;;;22.76;100.00;100541.81;3055917;19;1851;-48
2022/06/29 05:24:18;;;;;;;;;;;;;;;22.85;100.00;100540.75;3055247;19;1627;-48
2022/06/29 05:25:23;;;;;;;;;;;;;;;22.83;100.00;100537.34;3055957;19;1023;-48
2022/06/29 05:26:27;;;;;;;;;;;;;;;22.90;100.00;100538.38;3055875;19;1865;-48
2022/06/29 05:27:29;;;;;;;;;;;;;;;22.96;100.00;100548.56;3056171;19;1729;-48
2022/06/29 05:28:33;;;;;;;;;;;;;;;22.98;100.00;100551.97;3055816;19;782;-48
2022/06/29 05:29:35;;;;;;;;;;;;;;;23.01;100.00;100557.06;3055847;19;1016;-48
2022/06/29 05:30:40;;;;;;;;;;;;;;;23.07;100.00;100540.03;3056100;19;1265;-48
2022/06/29 05:31:45;;;;;;;;;;;;;;;22.98;100.00;100555.53;3056816;19;1772;-48
2022/06/29 05:32:47;;;;;;;;;;;;;;;23.09;100.00;100558.94;3054843;19;781;-48
2022/06/29 05:33:51;;;;;;;;;;;;;;;23.07;100.00;100561.81;3050704;19;1430;-48
2022/06/29 05:34:53;;;;;;;;;;;;;;;23.21;100.00;100562.97;3054476;19;1453;-48
2022/06/29 05:35:58;;;;;;;;;;;;;;;23.29;100.00;100569.28;3055982;19;972;-50
2022/06/29 05:37:00;;;;;;;;;;;;;;;23.44;100.00;100568.53;3055802;19;1011;-48